sensor_id;sensor_type;location;lat;lon;timestamp;pressure;altitude;pressure_sealevel;temperature;humidity
55044;BME280;54902;50.420;18.854;2023-01-29T00:00:09;102305.50;;;-0.76;78.86
55044;BME280;54902;50.420;18.854;2023-01-29T00:00:40;102299.26;;;-0.76;78.84
55044;BME280;54902;50.420;18.854;2023-01-29T00:01:12;102300.13;;;-0.76;78.85
55044;BME280;54902;50.420;18.854;2023-01-29T00:01:44;102299.26;;;-0.76;78.84
55044;BME280;54902;50.420;18.854;2023-01-29T00:02:15;102299.26;;;-0.76;78.82
55044;BME280;54902;50.420;18.854;2023-01-29T00:02:46;102302.81;;;-0.76;78.82
55044;BME280;54902;50.420;18.854;2023-01-29T00:03:17;102298.38;;;-0.77;78.83
55044;BME280;54902;50.420;18.854;2023-01-29T00:03:50;102293.89;;;-0.76;78.83
55044;BME280;54902;50.420;18.854;2023-01-29T00:04:22;102302.84;;;-0.77;78.83
55044;BME280;54902;50.420;18.854;2023-01-29T00:04:53;102297.48;;;-0.77;78.97
55044;BME280;54902;50.420;18.854;2023-01-29T00:05:24;102296.60;;;-0.78;78.83
55044;BME280;54902;50.420;18.854;2023-01-29T00:05:55;102297.48;;;-0.77;78.80
55044;BME280;54902;50.420;18.854;2023-01-29T00:06:26;102308.21;;;-0.77;78.82
55044;BME280;54902;50.420;18.854;2023-01-29T00:06:57;102304.67;;;-0.79;78.82
55044;BME280;54902;50.420;18.854;2023-01-29T00:07:29;102312.72;;;-0.79;78.84
55044;BME280;54902;50.420;18.854;2023-01-29T00:08:00;102313.61;;;-0.80;78.81
55044;BME280;54902;50.420;18.854;2023-01-29T00:08:37;102305.57;;;-0.80;78.82
55044;BME280;54902;50.420;18.854;2023-01-29T00:09:09;102304.67;;;-0.79;78.81
55044;BME280;54902;50.420;18.854;2023-01-29T00:09:41;102314.49;;;-0.80;78.82
55044;BME280;54902;50.420;18.854;2023-01-29T00:10:12;102307.38;;;-0.81;78.82
55044;BME280;54902;50.420;18.854;2023-01-29T00:10:43;102316.30;;;-0.80;78.79
55044;BME280;54902;50.420;18.854;2023-01-29T00:11:14;102310.06;;;-0.81;78.82
55044;BME280;54902;50.420;18.854;2023-01-29T00:11:46;102317.20;;;-0.81;78.82
55044;BME280;54902;50.420;18.854;2023-01-29T00:12:17;102310.97;;;-0.82;78.82
55044;BME280;54902;50.420;18.854;2023-01-29T00:12:48;102316.34;;;-0.83;78.81
55044;BME280;54902;50.420;18.854;2023-01-29T00:13:19;102315.41;;;-0.82;78.79
55044;BME280;54902;50.420;18.854;2023-01-29T00:13:51;102313.67;;;-0.83;78.80
55044;BME280;54902;50.420;18.854;2023-01-29T00:14:22;102308.30;;;-0.83;78.79
55044;BME280;54902;50.420;18.854;2023-01-29T00:14:53;102314.54;;;-0.83;78.79
55044;BME280;54902;50.420;18.854;2023-01-29T00:15:24;102319.03;;;-0.83;78.79
55044;BME280;54902;50.420;18.854;2023-01-29T00:15:56;102311.88;;;-0.84;78.78
55044;BME280;54902;50.420;18.854;2023-01-29T00:16:28;102316.37;;;-0.85;78.78
55044;BME280;54902;50.420;18.854;2023-01-29T00:16:58;102309.22;;;-0.86;78.77
55044;BME280;54902;50.420;18.854;2023-01-29T00:17:29;102309.22;;;-0.86;78.77
55044;BME280;54902;50.420;18.854;2023-01-29T00:18:00;102312.79;;;-0.85;78.78
55044;BME280;54902;50.420;18.854;2023-01-29T00:18:31;102308.32;;;-0.86;78.78
55044;BME280;54902;50.420;18.854;2023-01-29T00:19:02;102314.60;;;-0.86;78.77
55044;BME280;54902;50.420;18.854;2023-01-29T00:19:34;102317.31;;;-0.87;78.76
55044;BME280;54902;50.420;18.854;2023-01-29T00:20:06;102296.80;;;-0.91;78.74
55044;BME280;54902;50.420;18.854;2023-01-29T00:20:37;102312.84;;;-0.88;78.77
55044;BME280;54902;50.420;18.854;2023-01-29T00:21:12;102316.39;;;-0.88;78.75
55044;BME280;54902;50.420;18.854;2023-01-29T00:21:44;102316.39;;;-0.88;78.76
55044;BME280;54902;50.420;18.854;2023-01-29T00:22:15;102306.59;;;-0.89;78.76
55044;BME280;54902;50.420;18.854;2023-01-29T00:22:46;102314.64;;;-0.89;78.76
55044;BME280;54902;50.420;18.854;2023-01-29T00:23:18;102311.05;;;-0.89;78.74
55044;BME280;54902;50.420;18.854;2023-01-29T00:23:49;102319.10;;;-0.89;78.74
55044;BME280;54902;50.420;18.854;2023-01-29T00:24:20;102320.91;;;-0.90;78.72
55044;BME280;54902;50.420;18.854;2023-01-29T00:24:52;102317.31;;;-0.90;78.69
55044;BME280;54902;50.420;18.854;2023-01-29T00:25:23;102316.47;;;-0.92;78.67
55044;BME280;54902;50.420;18.854;2023-01-29T00:25:58;102314.63;;;-0.90;78.67
55044;BME280;54902;50.420;18.854;2023-01-29T00:26:30;102311.10;;;-0.92;78.68
55044;BME280;54902;50.420;18.854;2023-01-29T00:27:01;102311.10;;;-0.92;78.67
55044;BME280;54902;50.420;18.854;2023-01-29T00:27:32;102312.88;;;-0.93;78.67
55044;BME280;54902;50.420;18.854;2023-01-29T00:28:03;102318.27;;;-0.94;78.67
55044;BME280;54902;50.420;18.854;2023-01-29T00:28:34;102313.84;;;-0.95;78.67
55044;BME280;54902;50.420;18.854;2023-01-29T00:29:06;102308.47;;;-0.95;78.67
55044;BME280;54902;50.420;18.854;2023-01-29T00:29:37;102313.84;;;-0.95;78.66
55044;BME280;54902;50.420;18.854;2023-01-29T00:30:09;102318.27;;;-0.94;78.66
55044;BME280;54902;50.420;18.854;2023-01-29T00:30:42;102311.15;;;-0.95;78.66
55044;BME280;54902;50.420;18.854;2023-01-29T00:31:16;102315.61;;;-0.96;78.65
55044;BME280;54902;50.420;18.854;2023-01-29T00:31:47;102316.50;;;-0.97;78.65
55044;BME280;54902;50.420;18.854;2023-01-29T00:32:18;102326.36;;;-0.97;78.65
55044;BME280;54902;50.420;18.854;2023-01-29T00:32:49;102321.00;;;-0.97;78.65
55044;BME280;54902;50.420;18.854;2023-01-29T00:33:20;102310.27;;;-0.97;78.66
55044;BME280;54902;50.420;18.854;2023-01-29T00:33:51;102319.21;;;-0.98;78.67
55044;BME280;54902;50.420;18.854;2023-01-29T00:34:22;102322.83;;;-0.99;78.67
55044;BME280;54902;50.420;18.854;2023-01-29T00:34:53;102317.47;;;-0.99;78.69
55044;BME280;54902;50.420;18.854;2023-01-29T00:35:24;102311.20;;;-1.00;78.68
55044;BME280;54902;50.420;18.854;2023-01-29T00:35:55;102314.78;;;-0.99;78.69
55044;BME280;54902;50.420;18.854;2023-01-29T00:36:27;102304.95;;;-1.00;78.70
55044;BME280;54902;50.420;18.854;2023-01-29T00:36:58;102300.49;;;-1.01;78.66
55044;BME280;54902;50.420;18.854;2023-01-29T00:37:38;102307.63;;;-1.00;78.65
55044;BME280;54902;50.420;18.854;2023-01-29T00:38:09;102307.63;;;-1.00;78.62
55044;BME280;54902;50.420;18.854;2023-01-29T00:38:40;102305.85;;;-1.01;78.56
55044;BME280;54902;50.420;18.854;2023-01-29T00:39:11;102301.39;;;-1.02;78.56
55044;BME280;54902;50.420;18.854;2023-01-29T00:39:42;102306.76;;;-1.02;78.56
55044;BME280;54902;50.420;18.854;2023-01-29T00:40:13;102301.39;;;-1.02;78.54
55044;BME280;54902;50.420;18.854;2023-01-29T00:40:44;102304.98;;;-1.03;78.49
55044;BME280;54902;50.420;18.854;2023-01-29T00:41:29;102315.70;;;-1.03;78.43
55044;BME280;54902;50.420;18.854;2023-01-29T00:42:12;102308.58;;;-1.04;78.40
55044;BME280;54902;50.420;18.854;2023-01-29T00:42:55;102323.76;;;-1.05;78.34
55044;BME280;54902;50.420;18.854;2023-01-29T00:43:38;102332.73;;;-1.06;78.30
55044;BME280;54902;50.420;18.854;2023-01-29T00:44:21;102330.05;;;-1.07;78.28
55044;BME280;54902;50.420;18.854;2023-01-29T00:45:05;102333.66;;;-1.08;78.25
55044;BME280;54902;50.420;18.854;2023-01-29T00:45:36;102331.88;;;-1.09;78.26
55044;BME280;54902;50.420;18.854;2023-01-29T00:46:08;102333.69;;;-1.10;78.24
55044;BME280;54902;50.420;18.854;2023-01-29T00:46:39;102335.45;;;-1.10;78.23
55044;BME280;54902;50.420;18.854;2023-01-29T00:47:10;102336.34;;;-1.11;78.24
55044;BME280;54902;50.420;18.854;2023-01-29T00:47:53;102338.16;;;-1.12;78.24
55044;BME280;54902;50.420;18.854;2023-01-29T00:48:24;102335.51;;;-1.13;78.27
55044;BME280;54902;50.420;18.854;2023-01-29T00:48:55;102340.86;;;-1.13;78.28
55044;BME280;54902;50.420;18.854;2023-01-29T00:49:26;102343.57;;;-1.15;78.28
55044;BME280;54902;50.420;18.854;2023-01-29T00:49:58;102344.46;;;-1.16;78.30
55044;BME280;54902;50.420;18.854;2023-01-29T00:50:29;102344.48;;;-1.17;78.33
55044;BME280;54902;50.420;18.854;2023-01-29T00:51:01;102343.57;;;-1.17;78.35
55044;BME280;54902;50.420;18.854;2023-01-29T00:51:33;102338.21;;;-1.17;78.37
55044;BME280;54902;50.420;18.854;2023-01-29T00:52:05;102340.89;;;-1.17;78.41
55044;BME280;54902;50.420;18.854;2023-01-29T00:52:47;102332.85;;;-1.17;78.41
55044;BME280;54902;50.420;18.854;2023-01-29T00:53:22;102342.70;;;-1.18;78.42
55044;BME280;54902;50.420;18.854;2023-01-29T00:53:53;102333.77;;;-1.17;78.41
55044;BME280;54902;50.420;18.854;2023-01-29T00:54:32;102337.34;;;-1.18;78.41
55044;BME280;54902;50.420;18.854;2023-01-29T00:55:04;102338.23;;;-1.19;78.39
55044;BME280;54902;50.420;18.854;2023-01-29T00:55:35;102342.70;;;-1.18;78.37
55044;BME280;54902;50.420;18.854;2023-01-29T00:56:06;102341.83;;;-1.18;78.36
55044;BME280;54902;50.420;18.854;2023-01-29T00:56:37;102339.16;;;-1.20;78.35
55044;BME280;54902;50.420;18.854;2023-01-29T00:57:08;102333.81;;;-1.20;78.36
55044;BME280;54902;50.420;18.854;2023-01-29T00:57:39;102331.13;;;-1.20;78.37
55044;BME280;54902;50.420;18.854;2023-01-29T00:58:10;102341.84;;;-1.21;78.37
55044;BME280;54902;50.420;18.854;2023-01-29T00:58:41;102320.57;;;-1.35;78.37
55044;BME280;54902;50.420;18.854;2023-01-29T00:59:12;102340.96;;;-1.22;78.37
55044;BME280;54902;50.420;18.854;2023-01-29T00:59:43;102340.09;;;-1.22;78.37
55044;BME280;54902;50.420;18.854;2023-01-29T01:00:16;102333.82;;;-1.23;78.41
55044;BME280;54902;50.420;18.854;2023-01-29T01:00:48;102342.79;;;-1.24;78.41
55044;BME280;54902;50.420;18.854;2023-01-29T01:01:20;102340.98;;;-1.23;78.43
55044;BME280;54902;50.420;18.854;2023-01-29T01:02:02;102344.56;;;-1.24;78.46
55044;BME280;54902;50.420;18.854;2023-01-29T01:02:45;102341.01;;;-1.25;78.45
55044;BME280;54902;50.420;18.854;2023-01-29T01:03:28;102342.79;;;-1.24;78.45
55044;BME280;54902;50.420;18.854;2023-01-29T01:04:05;102340.09;;;-1.25;78.44
55044;BME280;54902;50.420;18.854;2023-01-29T01:04:36;102334.74;;;-1.25;78.45
55044;BME280;54902;50.420;18.854;2023-01-29T01:05:09;102346.36;;;-1.25;78.44
55044;BME280;54902;50.420;18.854;2023-01-29T01:05:48;102346.36;;;-1.25;78.45
55044;BME280;54902;50.420;18.854;2023-01-29T01:06:19;102339.22;;;-1.26;78.45
55044;BME280;54902;50.420;18.854;2023-01-29T01:06:50;102341.02;;;-1.26;78.46
55044;BME280;54902;50.420;18.854;2023-01-29T01:07:21;102332.08;;;-1.27;78.46
55044;BME280;54902;50.420;18.854;2023-01-29T01:07:55;102331.18;;;-1.26;78.46
55044;BME280;54902;50.420;18.854;2023-01-29T01:08:26;102334.77;;;-1.27;78.47
55044;BME280;54902;50.420;18.854;2023-01-29T01:09:09;102333.89;;;-1.27;78.45
55044;BME280;54902;50.420;18.854;2023-01-29T01:09:52;102331.23;;;-1.29;78.46
55044;BME280;54902;50.420;18.854;2023-01-29T01:10:35;102332.97;;;-1.28;78.47
55044;BME280;54902;50.420;18.854;2023-01-29T01:11:06;102323.20;;;-1.32;78.46
55044;BME280;54902;50.420;18.854;2023-01-29T01:11:37;102327.62;;;-1.28;78.46
55044;BME280;54902;50.420;18.854;2023-01-29T01:12:08;102329.42;;;-1.28;78.46
55044;BME280;54902;50.420;18.854;2023-01-29T01:12:39;102328.55;;;-1.29;78.48
55044;BME280;54902;50.420;18.854;2023-01-29T01:13:10;102328.55;;;-1.29;78.46
55044;BME280;54902;50.420;18.854;2023-01-29T01:13:42;102315.14;;;-1.29;78.46
55044;BME280;54902;50.420;18.854;2023-01-29T01:14:13;102326.77;;;-1.30;78.46
55044;BME280;54902;50.420;18.854;2023-01-29T01:14:44;102326.77;;;-1.30;78.44
55044;BME280;54902;50.420;18.854;2023-01-29T01:15:16;102324.09;;;-1.30;78.43
55044;BME280;54902;50.420;18.854;2023-01-29T01:15:47;102319.62;;;-1.31;78.44
55044;BME280;54902;50.420;18.854;2023-01-29T01:16:18;102320.53;;;-1.30;78.45
55044;BME280;54902;50.420;18.854;2023-01-29T01:16:50;102314.26;;;-1.31;78.44
55044;BME280;54902;50.420;18.854;2023-01-29T01:17:22;102317.85;;;-1.30;78.43
55044;BME280;54902;50.420;18.854;2023-01-29T01:17:58;102316.95;;;-1.31;78.42
55044;BME280;54902;50.420;18.854;2023-01-29T01:18:29;102322.33;;;-1.32;78.39
55044;BME280;54902;50.420;18.854;2023-01-29T01:19:02;102325.88;;;-1.32;78.39
55044;BME280;54902;50.420;18.854;2023-01-29T01:19:34;102329.48;;;-1.33;78.39
55044;BME280;54902;50.420;18.854;2023-01-29T01:20:06;102321.45;;;-1.33;78.37
55044;BME280;54902;50.420;18.854;2023-01-29T01:20:37;102320.55;;;-1.33;78.37
55044;BME280;54902;50.420;18.854;2023-01-29T01:21:09;102321.45;;;-1.33;78.38
55044;BME280;54902;50.420;18.854;2023-01-29T01:21:40;102319.66;;;-1.34;78.35
55044;BME280;54902;50.420;18.854;2023-01-29T01:22:17;102317.85;;;-1.33;78.36
55044;BME280;54902;50.420;18.854;2023-01-29T01:22:48;102318.79;;;-1.34;78.34
55044;BME280;54902;50.420;18.854;2023-01-29T01:23:19;102312.52;;;-1.35;78.35
55044;BME280;54902;50.420;18.854;2023-01-29T01:23:50;102312.52;;;-1.35;78.34
55044;BME280;54902;50.420;18.854;2023-01-29T01:24:22;102318.79;;;-1.34;78.36
55044;BME280;54902;50.420;18.854;2023-01-29T01:24:53;102317.89;;;-1.35;78.36
55044;BME280;54902;50.420;18.854;2023-01-29T01:25:25;102311.68;;;-1.37;78.36
55044;BME280;54902;50.420;18.854;2023-01-29T01:25:56;102310.76;;;-1.37;78.37
55044;BME280;54902;50.420;18.854;2023-01-29T01:26:27;102317.90;;;-1.36;78.36
55044;BME280;54902;50.420;18.854;2023-01-29T01:26:58;102320.58;;;-1.36;78.36
55044;BME280;54902;50.420;18.854;2023-01-29T01:27:29;102319.71;;;-1.37;78.36
55044;BME280;54902;50.420;18.854;2023-01-29T01:28:00;102325.94;;;-1.36;78.38
55044;BME280;54902;50.420;18.854;2023-01-29T01:28:31;102299.31;;;-1.53;78.36
55044;BME280;54902;50.420;18.854;2023-01-29T01:29:02;102317.93;;;-1.38;78.37
55044;BME280;54902;50.420;18.854;2023-01-29T01:29:33;102311.70;;;-1.38;78.36
55044;BME280;54902;50.420;18.854;2023-01-29T01:30:09;102315.25;;;-1.38;78.38
55044;BME280;54902;50.420;18.854;2023-01-29T01:30:41;102320.61;;;-1.38;78.36
55044;BME280;54902;50.420;18.854;2023-01-29T01:31:13;102316.14;;;-1.39;78.34
55044;BME280;54902;50.420;18.854;2023-01-29T01:31:44;102317.05;;;-1.38;78.34
55044;BME280;54902;50.420;18.854;2023-01-29T01:32:15;102317.93;;;-1.38;78.33
55044;BME280;54902;50.420;18.854;2023-01-29T01:32:46;102310.79;;;-1.39;78.31
55044;BME280;54902;50.420;18.854;2023-01-29T01:33:17;102313.46;;;-1.39;78.29
55044;BME280;54902;50.420;18.854;2023-01-29T01:33:48;102312.59;;;-1.39;78.26
55044;BME280;54902;50.420;18.854;2023-01-29T01:34:21;102316.14;;;-1.39;78.24
55044;BME280;54902;50.420;18.854;2023-01-29T01:34:52;102317.95;;;-1.39;78.22
55044;BME280;54902;50.420;18.854;2023-01-29T01:35:23;102316.14;;;-1.39;78.22
55044;BME280;54902;50.420;18.854;2023-01-29T01:35:54;102315.27;;;-1.39;78.20
55044;BME280;54902;50.420;18.854;2023-01-29T01:36:25;102319.72;;;-1.40;78.20
55044;BME280;54902;50.420;18.854;2023-01-29T01:36:56;102311.70;;;-1.41;78.19
55044;BME280;54902;50.420;18.854;2023-01-29T01:37:27;102309.95;;;-1.44;78.16
55044;BME280;54902;50.420;18.854;2023-01-29T01:37:59;102309.92;;;-1.42;78.17
55044;BME280;54902;50.420;18.854;2023-01-29T01:38:30;102312.59;;;-1.42;78.17
55044;BME280;54902;50.420;18.854;2023-01-29T01:39:01;102311.73;;;-1.43;78.16
55044;BME280;54902;50.420;18.854;2023-01-29T01:39:32;102304.56;;;-1.42;78.16
55044;BME280;54902;50.420;18.854;2023-01-29T01:40:04;102323.34;;;-1.44;78.15
55044;BME280;54902;50.420;18.854;2023-01-29T01:40:43;102309.95;;;-1.44;78.16
55044;BME280;54902;50.420;18.854;2023-01-29T01:41:18;102311.75;;;-1.44;78.16
55044;BME280;54902;50.420;18.854;2023-01-29T01:41:50;102309.97;;;-1.45;78.15
55044;BME280;54902;50.420;18.854;2023-01-29T01:42:28;102303.73;;;-1.46;78.16
55044;BME280;54902;50.420;18.854;2023-01-29T01:43:02;102307.29;;;-1.45;78.17
55044;BME280;54902;50.420;18.854;2023-01-29T01:45:04;102301.05;;;-1.46;78.15
55044;BME280;54902;50.420;18.854;2023-01-29T01:45:39;102308.17;;;-1.46;78.17
55044;BME280;54902;50.420;18.854;2023-01-29T01:46:13;102294.80;;;-1.48;78.12
55044;BME280;54902;50.420;18.854;2023-01-29T01:46:44;102305.53;;;-1.48;78.11
55044;BME280;54902;50.420;18.854;2023-01-29T01:47:16;102298.41;;;-1.49;78.13
55044;BME280;54902;50.420;18.854;2023-01-29T01:47:53;102296.61;;;-1.48;78.13
55044;BME280;54902;50.420;18.854;2023-01-29T01:48:26;102297.51;;;-1.49;78.11
55044;BME280;54902;50.420;18.854;2023-01-29T01:49:07;102292.16;;;-1.49;78.13
55044;BME280;54902;50.420;18.854;2023-01-29T01:49:40;102293.06;;;-1.49;78.14
55044;BME280;54902;50.420;18.854;2023-01-29T01:50:19;102291.28;;;-1.50;78.15
55044;BME280;54902;50.420;18.854;2023-01-29T01:51:01;102300.19;;;-1.49;78.13
55044;BME280;54902;50.420;18.854;2023-01-29T01:51:36;102298.41;;;-1.49;78.13
55044;BME280;54902;50.420;18.854;2023-01-29T01:52:11;102268.23;;;-1.64;78.10
55044;BME280;54902;50.420;18.854;2023-01-29T01:52:49;102288.60;;;-1.50;78.11
55044;BME280;54902;50.420;18.854;2023-01-29T01:53:33;102279.65;;;-1.50;78.12
55044;BME280;54902;50.420;18.854;2023-01-29T01:54:11;102286.81;;;-1.51;78.10
55044;BME280;54902;50.420;18.854;2023-01-29T01:54:43;102282.35;;;-1.52;78.11
55044;BME280;54902;50.420;18.854;2023-01-29T01:55:17;102289.49;;;-1.51;78.11
55044;BME280;54902;50.420;18.854;2023-01-29T01:55:56;102278.78;;;-1.51;78.12
55044;BME280;54902;50.420;18.854;2023-01-29T01:56:32;102293.07;;;-1.52;78.13
55044;BME280;54902;50.420;18.854;2023-01-29T01:57:14;102295.75;;;-1.52;78.11
55044;BME280;54902;50.420;18.854;2023-01-29T01:57:48;102303.79;;;-1.52;78.11
55044;BME280;54902;50.420;18.854;2023-01-29T01:58:35;102289.54;;;-1.57;78.10
55044;BME280;54902;50.420;18.854;2023-01-29T01:59:01;102297.53;;;-1.51;78.11
55044;BME280;54902;50.420;18.854;2023-01-29T01:59:33;102298.43;;;-1.52;78.11
55044;BME280;54902;50.420;18.854;2023-01-29T02:00:11;102295.75;;;-1.52;78.12
55044;BME280;54902;50.420;18.854;2023-01-29T02:00:43;102298.43;;;-1.52;78.12
55044;BME280;54902;50.420;18.854;2023-01-29T02:01:14;102296.64;;;-1.53;78.12
55044;BME280;54902;50.420;18.854;2023-01-29T02:01:48;102296.64;;;-1.53;78.12
55044;BME280;54902;50.420;18.854;2023-01-29T02:02:21;102301.99;;;-1.53;78.11
55044;BME280;54902;50.420;18.854;2023-01-29T02:03:04;102296.64;;;-1.53;78.08
55044;BME280;54902;50.420;18.854;2023-01-29T02:03:56;102298.45;;;-1.53;78.06
55044;BME280;54902;50.420;18.854;2023-01-29T02:04:45;102292.22;;;-1.54;78.05
55044;BME280;54902;50.420;18.854;2023-01-29T02:05:33;102300.26;;;-1.54;78.04
55044;BME280;54902;50.420;18.854;2023-01-29T02:06:18;102293.11;;;-1.55;78.02
55044;BME280;54902;50.420;18.854;2023-01-29T02:07:02;102293.11;;;-1.55;78.03
55044;BME280;54902;50.420;18.854;2023-01-29T02:07:48;102281.52;;;-1.55;78.01
55044;BME280;54902;50.420;18.854;2023-01-29T02:09:38;102291.34;;;-1.56;78.02
55044;BME280;54902;50.420;18.854;2023-01-29T02:10:14;102285.11;;;-1.56;78.02
55044;BME280;54902;50.420;18.854;2023-01-29T02:10:47;102289.54;;;-1.57;78.04
55044;BME280;54902;50.420;18.854;2023-01-29T02:11:19;102285.12;;;-1.58;78.04
55044;BME280;54902;50.420;18.854;2023-01-29T02:11:50;102289.54;;;-1.57;78.04
55044;BME280;54902;50.420;18.854;2023-01-29T02:12:22;102293.16;;;-1.58;78.06
55044;BME280;54902;50.420;18.854;2023-01-29T02:12:53;102294.90;;;-1.57;78.06
55044;BME280;54902;50.420;18.854;2023-01-29T02:13:25;102294.90;;;-1.57;78.06
55044;BME280;54902;50.420;18.854;2023-01-29T02:13:56;102298.50;;;-1.56;78.06
55044;BME280;54902;50.420;18.854;2023-01-29T02:14:28;102293.13;;;-1.56;78.13
55044;BME280;54902;50.420;18.854;2023-01-29T02:15:01;102298.50;;;-1.56;78.09
55044;BME280;54902;50.420;18.854;2023-01-29T02:15:32;102296.69;;;-1.56;78.08
55044;BME280;54902;50.420;18.854;2023-01-29T02:16:04;102293.11;;;-1.55;78.08
55044;BME280;54902;50.420;18.854;2023-01-29T02:16:36;102295.80;;;-1.55;78.07
55044;BME280;54902;50.420;18.854;2023-01-29T02:17:10;102285.11;;;-1.56;78.06
55044;BME280;54902;50.420;18.854;2023-01-29T02:17:41;102281.52;;;-1.55;78.03
55044;BME280;54902;50.420;18.854;2023-01-29T02:18:20;102279.72;;;-1.55;78.03
55044;BME280;54902;50.420;18.854;2023-01-29T02:18:51;102276.16;;;-1.55;78.04
55044;BME280;54902;50.420;18.854;2023-01-29T02:23:54;102274.36;;;-1.55;78.06
55044;BME280;54902;50.420;18.854;2023-01-29T02:26:43;102275.27;;;-1.56;78.06
55044;BME280;54902;50.420;18.854;2023-01-29T02:27:21;102282.39;;;-1.55;78.04
55044;BME280;54902;50.420;18.854;2023-01-29T02:28:48;102272.58;;;-1.56;78.04
55044;BME280;54902;50.420;18.854;2023-01-29T02:30:16;102279.72;;;-1.55;78.00
55044;BME280;54902;50.420;18.854;2023-01-29T02:31:40;102274.38;;;-1.56;78.00
55044;BME280;54902;50.420;18.854;2023-01-29T02:33:03;102278.83;;;-1.57;78.00
55044;BME280;54902;50.420;18.854;2023-01-29T02:35:10;102278.83;;;-1.57;77.99
55044;BME280;54902;50.420;18.854;2023-01-29T02:36:54;102291.37;;;-1.59;77.98
55044;BME280;54902;50.420;18.854;2023-01-29T02:39:36;102291.37;;;-1.59;77.95
55044;BME280;54902;50.420;18.854;2023-01-29T02:41:04;102290.49;;;-1.59;77.90
55044;BME280;54902;50.420;18.854;2023-01-29T02:41:50;102294.95;;;-1.60;77.91
55044;BME280;54902;50.420;18.854;2023-01-29T02:42:30;102286.91;;;-1.60;77.91
55044;BME280;54902;50.420;18.854;2023-01-29T02:43:54;102286.91;;;-1.60;77.80
55044;BME280;54902;50.420;18.854;2023-01-29T02:44:45;102295.84;;;-1.61;77.62
55044;BME280;54902;50.420;18.854;2023-01-29T02:45:23;102288.73;;;-1.62;77.35
55044;BME280;54902;50.420;18.854;2023-01-29T02:48:01;102293.20;;;-1.64;76.28
55044;BME280;54902;50.420;18.854;2023-01-29T02:48:39;102292.34;;;-1.64;76.29
55044;BME280;54902;50.420;18.854;2023-01-29T02:49:21;102294.13;;;-1.66;76.38
55044;BME280;54902;50.420;18.854;2023-01-29T02:50:42;102298.61;;;-1.67;76.49
55044;BME280;54902;50.420;18.854;2023-01-29T02:50:43;102289.69;;;-1.69;76.57
55044;BME280;54902;50.420;18.854;2023-01-29T02:51:20;102299.52;;;-1.69;76.63
55044;BME280;54902;50.420;18.854;2023-01-29T02:53:31;102304.00;;;-1.73;76.80
55044;BME280;54902;50.420;18.854;2023-01-29T02:54:54;102295.13;;;-1.74;76.88
55044;BME280;54902;50.420;18.854;2023-01-29T02:56:02;102306.73;;;-1.75;76.89
55044;BME280;54902;50.420;18.854;2023-01-29T02:56:23;102295.13;;;-1.74;76.93
55044;BME280;54902;50.420;18.854;2023-01-29T02:57:42;102287.98;;;-1.75;76.99
55044;BME280;54902;50.420;18.854;2023-01-29T02:58:26;102290.66;;;-1.75;77.01
55044;BME280;54902;50.420;18.854;2023-01-29T02:59:07;102287.98;;;-1.75;77.04
55044;BME280;54902;50.420;18.854;2023-01-29T02:59:52;102297.80;;;-1.74;77.06
55044;BME280;54902;50.420;18.854;2023-01-29T03:00:29;102292.45;;;-1.74;77.08
55044;BME280;54902;50.420;18.854;2023-01-29T03:01:52;102310.27;;;-1.75;77.11
55044;BME280;54902;50.420;18.854;2023-01-29T03:02:31;102305.84;;;-1.74;77.12
55044;BME280;54902;50.420;18.854;2023-01-29T03:03:52;102300.48;;;-1.74;77.14
55044;BME280;54902;50.420;18.854;2023-01-29T03:04:34;102302.25;;;-1.75;77.14
55044;BME280;54902;50.420;18.854;2023-01-29T03:05:14;102306.73;;;-1.75;77.16
55044;BME280;54902;50.420;18.854;2023-01-29T03:06:38;102315.64;;;-1.73;77.19
55044;BME280;54902;50.420;18.854;2023-01-29T03:07:16;102312.07;;;-1.74;77.18
55044;BME280;54902;50.420;18.854;2023-01-29T03:08:06;102311.20;;;-1.74;77.19
55044;BME280;54902;50.420;18.854;2023-01-29T03:08:46;102311.20;;;-1.74;77.17
55044;BME280;54902;50.420;18.854;2023-01-29T03:09:28;102311.20;;;-1.74;77.13
55044;BME280;54902;50.420;18.854;2023-01-29T03:10:03;102312.97;;;-1.73;77.08
55044;BME280;54902;50.420;18.854;2023-01-29T03:10:43;102316.55;;;-1.74;77.09
55044;BME280;54902;50.420;18.854;2023-01-29T03:11:17;102318.32;;;-1.73;77.05
55044;BME280;54902;50.420;18.854;2023-01-29T03:11:51;102316.55;;;-1.74;77.05
55044;BME280;54902;50.420;18.854;2023-01-29T03:12:27;102316.55;;;-1.74;77.03
55044;BME280;54902;50.420;18.854;2023-01-29T03:13:09;102319.22;;;-1.74;77.01
55044;BME280;54902;50.420;18.854;2023-01-29T03:14:31;102317.44;;;-1.75;76.95
55044;BME280;54902;50.420;18.854;2023-01-29T03:15:22;102318.33;;;-1.76;76.93
55044;BME280;54902;50.420;18.854;2023-01-29T03:16:14;102309.42;;;-1.77;76.89
55044;BME280;54902;50.420;18.854;2023-01-29T03:16:50;102315.66;;;-1.76;76.86
55044;BME280;54902;50.420;18.854;2023-01-29T03:17:25;102316.59;;;-1.77;76.84
55044;BME280;54902;50.420;18.854;2023-01-29T03:18:05;102317.48;;;-1.78;76.86
55044;BME280;54902;50.420;18.854;2023-01-29T03:18:45;102308.55;;;-1.80;76.87
55044;BME280;54902;50.420;18.854;2023-01-29T03:19:28;102312.15;;;-1.80;76.88
55044;BME280;54902;50.420;18.854;2023-01-29T03:20:10;102314.83;;;-1.80;76.91
55044;BME280;54902;50.420;18.854;2023-01-29T03:20:46;102317.48;;;-1.81;76.91
55044;BME280;54902;50.420;18.854;2023-01-29T03:21:27;102322.84;;;-1.81;76.92
55044;BME280;54902;50.420;18.854;2023-01-29T03:22:13;102320.16;;;-1.81;76.91
55044;BME280;54902;50.420;18.854;2023-01-29T03:23:34;102312.13;;;-1.81;76.86
55044;BME280;54902;50.420;18.854;2023-01-29T03:24:23;102322.84;;;-1.81;76.84
55044;BME280;54902;50.420;18.854;2023-01-29T03:25:08;102313.05;;;-1.82;76.81
55044;BME280;54902;50.420;18.854;2023-01-29T03:25:57;102316.63;;;-1.83;76.81
55044;BME280;54902;50.420;18.854;2023-01-29T03:26:42;102313.05;;;-1.82;76.76
55044;BME280;54902;50.420;18.854;2023-01-29T03:27:30;102314.84;;;-1.84;76.68